createdAt,value
2019-05-07T00:01:52.478Z,8.30
2019-05-07T00:06:57.730Z,3.70
2019-05-07T00:12:05.068Z,6.90
2019-05-07T00:17:10.156Z,7.83
2019-05-07T00:22:15.491Z,9.23
2019-05-07T00:27:22.621Z,5.83
2019-05-07T00:32:28.587Z,5.03
2019-05-07T00:37:45.337Z,2.77
2019-05-07T00:43:15.887Z,2.97
2019-05-07T00:48:23.284Z,4.33
2019-05-07T00:53:28.103Z,4.83
2019-05-07T00:58:33.451Z,7.00
2019-05-07T01:03:38.767Z,6.97
2019-05-07T01:08:44.097Z,9.30
2019-05-07T01:13:49.407Z,9.73
2019-05-07T01:18:54.707Z,9.00
2019-05-07T01:24:00.008Z,9.37
2019-05-07T01:29:05.420Z,8.50
2019-05-07T01:34:34.661Z,9.87
2019-05-07T01:39:42.061Z,9.57
2019-05-07T01:44:46.910Z,9.90
2019-05-07T01:49:54.871Z,10.10
2019-05-07T01:54:59.334Z,9.10
2019-05-07T02:00:05.727Z,10.23
2019-05-07T02:05:22.988Z,10.63
2019-05-07T02:10:53.400Z,10.17
2019-05-07T02:16:01.852Z,9.73
2019-05-07T02:21:06.756Z,9.93
2019-05-07T02:26:13.361Z,9.83
2019-05-07T02:31:22.975Z,10.20
2019-05-07T02:36:27.427Z,9.93
2019-05-07T02:41:34.854Z,11.17
2019-05-07T02:46:59.113Z,9.57
2019-05-07T02:52:14.884Z,10.33
2019-05-07T02:57:20.205Z,10.10
2019-05-07T03:02:25.646Z,10.80
2019-05-07T03:07:33.471Z,10.10
2019-05-07T03:12:38.108Z,10.70
2019-05-07T03:17:43.490Z,10.37
2019-05-07T03:22:49.120Z,11.07
2019-05-07T03:27:54.452Z,10.63
2019-05-07T03:33:16.113Z,11.27
2019-05-07T03:38:22.877Z,10.17
2019-05-07T03:43:27.989Z,12.50
2019-05-07T03:48:34.113Z,13.93
2019-05-07T03:53:39.524Z,14.10
2019-05-07T03:58:44.835Z,13.17
2019-05-07T04:03:53.117Z,12.47
2019-05-07T04:08:57.275Z,11.97
2019-05-07T04:14:02.900Z,12.63
2019-05-07T04:19:09.384Z,13.77
2019-05-07T04:24:23.502Z,23.13
2019-05-07T04:29:28.328Z,19.17
2019-05-07T04:35:12.584Z,16.77
2019-05-07T04:40:18.225Z,17.43
2019-05-07T04:45:23.581Z,17.40
2019-05-07T04:50:39.554Z,17.10
2019-05-07T04:55:38.277Z,15.63
2019-05-07T05:00:43.631Z,17.93
2019-05-07T05:05:48.949Z,15.17
2019-05-07T05:10:54.294Z,15.97
2019-05-07T05:16:02.104Z,12.00
2019-05-07T05:21:27.513Z,11.73
2019-05-07T05:26:32.840Z,11.37
2019-05-07T05:31:38.144Z,10.33
2019-05-07T05:36:43.498Z,11.17
2019-05-07T05:41:51.835Z,10.83
2019-05-07T05:46:57.223Z,10.47
2019-05-07T05:52:21.608Z,10.03
2019-05-07T05:57:33.809Z,11.70
2019-05-07T06:03:03.871Z,10.70
2019-05-07T06:08:25.273Z,10.77
2019-05-07T06:14:02.237Z,11.30
2019-05-07T06:19:15.195Z,10.83
2019-05-07T06:24:32.303Z,10.23
2019-05-07T06:29:37.735Z,11.07
2019-05-07T06:34:44.753Z,9.90
2019-05-07T06:40:12.142Z,11.10
2019-05-07T06:45:22.836Z,9.53
2019-05-07T06:50:28.158Z,9.70
2019-05-07T06:55:35.440Z,9.20
2019-05-07T07:00:58.499Z,8.23
2019-05-07T07:06:15.162Z,8.93
2019-05-07T07:11:28.970Z,8.67
2019-05-07T07:16:34.415Z,8.60
2019-05-07T07:21:42.030Z,9.47
2019-05-07T07:26:47.404Z,8.60
2019-05-07T07:31:59.792Z,8.50
2019-05-07T07:37:24.136Z,8.73
2019-05-07T07:42:31.891Z,5.83
2019-05-07T07:47:36.998Z,7.60
2019-05-07T07:52:43.474Z,7.90
2019-05-07T07:57:54.729Z,5.83
2019-05-07T08:03:02.931Z,5.60
2019-05-07T08:08:08.268Z,5.83
2019-05-07T08:13:13.632Z,5.87
2019-05-07T08:18:18.999Z,6.60
2019-05-07T08:23:24.279Z,6.37
2019-05-07T08:28:31.766Z,6.27
2019-05-07T08:33:42.701Z,6.30
2019-05-07T08:38:55.595Z,5.60
2019-05-07T08:44:15.438Z,6.30
2019-05-07T08:49:33.268Z,6.30
2019-05-07T08:54:28.611Z,5.93
2019-05-07T08:59:35.928Z,6.30
2019-05-07T09:04:41.943Z,7.00
2019-05-07T09:09:48.562Z,6.07
2019-05-07T09:14:54.563Z,5.90
2019-05-07T09:20:02.584Z,6.47
2019-05-07T09:25:09.493Z,5.53
2019-05-07T09:30:42.040Z,6.30
2019-05-07T09:35:52.965Z,5.63
2019-05-07T09:40:58.920Z,5.63
2019-05-07T09:46:04.402Z,5.00
2019-05-07T09:51:09.749Z,5.40
2019-05-07T09:56:16.042Z,4.77
2019-05-07T10:01:23.692Z,4.57
2019-05-07T10:06:31.930Z,4.70
2019-05-07T10:11:43.092Z,3.70
2019-05-07T10:17:15.010Z,4.40
2019-05-07T10:22:22.660Z,4.30
2019-05-07T10:27:27.529Z,4.53
2019-05-07T10:32:33.395Z,5.50
2019-05-07T10:37:38.745Z,4.70
2019-05-07T10:42:45.087Z,4.47
2019-05-07T10:48:15.007Z,3.77
2019-05-07T10:53:20.434Z,4.50
2019-05-07T10:58:25.813Z,3.67
2019-05-07T11:03:32.541Z,3.80
2019-05-07T11:08:38.039Z,3.60
2019-05-07T11:13:43.400Z,3.13
2019-05-07T11:18:51.790Z,4.50
2019-05-07T11:23:57.216Z,3.43
2019-05-07T11:29:02.600Z,4.67
2019-05-07T11:34:07.901Z,4.70
2019-05-07T11:39:13.261Z,1.93
2019-05-07T11:44:23.088Z,4.10
2019-05-07T11:49:47.362Z,4.73
2019-05-07T11:54:52.680Z,4.63
2019-05-07T11:59:58.001Z,3.27
2019-05-07T12:05:03.320Z,4.57
2019-05-07T12:10:08.750Z,3.53
2019-05-07T12:15:14.089Z,3.80
2019-05-07T12:20:21.719Z,3.90
2019-05-07T12:25:26.880Z,4.57
2019-05-07T12:31:00.268Z,4.60
2019-05-07T12:36:06.585Z,4.63
2019-05-07T12:41:33.014Z,4.47
2019-05-07T12:46:37.647Z,3.80
2019-05-07T12:52:02.268Z,4.20
2019-05-07T12:57:07.784Z,4.63
2019-05-07T13:02:38.202Z,2.93
2019-05-07T13:07:47.996Z,2.60
2019-05-07T13:12:55.700Z,5.03
2019-05-07T13:18:02.737Z,4.93
2019-05-07T13:23:09.036Z,4.30
2019-05-07T13:28:14.350Z,3.83
2019-05-07T13:33:22.659Z,3.80
2019-05-07T13:38:45.611Z,3.83
2019-05-07T13:44:16.993Z,3.83
2019-05-07T13:49:22.376Z,5.10
2019-05-07T13:54:27.701Z,4.40
2019-05-07T13:59:33.099Z,3.83
2019-05-07T14:04:38.533Z,3.93
2019-05-07T14:09:43.953Z,4.13
2019-05-07T14:14:49.303Z,4.03
2019-05-07T14:19:54.668Z,4.00
2019-05-07T14:25:00.025Z,4.43
2019-05-07T14:30:05.884Z,4.73
2019-05-07T14:35:18.457Z,4.17
2019-05-07T14:40:25.175Z,4.33
2019-05-07T14:45:32.621Z,3.57
2019-05-07T14:50:37.759Z,4.30
2019-05-07T14:55:43.113Z,4.50
2019-05-07T15:00:48.461Z,4.00
2019-05-07T15:05:55.991Z,4.47
2019-05-07T15:11:02.722Z,5.00
2019-05-07T15:16:08.335Z,4.37
2019-05-07T15:21:14.080Z,4.33
2019-05-07T15:26:19.484Z,5.20
2019-05-07T15:31:46.629Z,6.22
2019-05-07T15:36:52.700Z,4.75
2019-05-07T15:41:58.305Z,5.73
2019-05-07T15:47:08.259Z,4.50
2019-05-07T15:52:22.035Z,5.20
2019-05-07T15:57:29.745Z,4.93
2019-05-07T16:02:38.382Z,7.40
2019-05-07T16:07:45.301Z,5.27
2019-05-07T16:12:53.069Z,5.20
2019-05-07T16:18:02.929Z,6.33
2019-05-07T16:23:14.712Z,5.27
2019-05-07T16:28:16.420Z,5.47
2019-05-07T16:33:21.748Z,5.30
2019-05-07T16:38:27.092Z,5.17
2019-05-07T16:43:33.608Z,5.00
2019-05-07T16:48:40.068Z,4.80
2019-05-07T16:53:45.384Z,4.90
2019-05-07T16:59:02.877Z,4.77
2019-05-07T17:04:08.401Z,5.40
2019-05-07T17:09:15.043Z,5.10
2019-05-07T17:14:20.430Z,5.37
2019-05-07T17:19:25.961Z,4.87
2019-05-07T17:24:42.149Z,5.07
2019-05-07T17:29:47.316Z,4.87
2019-05-07T17:34:52.922Z,5.13
2019-05-07T17:39:58.457Z,5.57
2019-05-07T17:45:03.828Z,5.63
2019-05-07T17:50:12.936Z,5.10
2019-05-07T17:55:18.263Z,5.80
2019-05-07T18:00:23.669Z,6.33
2019-05-07T18:05:28.985Z,6.53
2019-05-07T18:10:34.491Z,6.83
2019-05-07T18:15:39.998Z,8.77
2019-05-07T18:20:45.411Z,9.10
2019-05-07T18:25:52.276Z,7.80
2019-05-07T18:30:57.843Z,7.30
2019-05-07T18:36:03.222Z,6.70
2019-05-07T18:41:08.600Z,9.43
2019-05-07T18:46:13.900Z,7.30
2019-05-07T18:51:19.287Z,9.57
2019-05-07T18:56:24.751Z,7.83
2019-05-07T19:01:32.723Z,9.53
2019-05-07T19:06:38.273Z,9.27
2019-05-07T19:11:43.787Z,8.30
2019-05-07T19:16:49.107Z,10.23
2019-05-07T19:21:54.593Z,10.37
2019-05-07T19:27:02.059Z,9.20
2019-05-07T19:32:09.507Z,8.97
2019-05-07T19:37:15.123Z,7.70
2019-05-07T19:42:20.739Z,8.07
2019-05-07T19:47:28.857Z,7.20
2019-05-07T19:52:34.247Z,7.20
2019-05-07T19:57:45.691Z,7.07
2019-05-07T20:02:52.748Z,7.50
2019-05-07T20:08:01.912Z,7.50
2019-05-07T20:13:05.211Z,8.33
2019-05-07T20:18:12.433Z,13.03
2019-05-07T20:23:17.591Z,12.23
2019-05-07T20:28:23.062Z,13.00
2019-05-07T20:33:29.853Z,10.93
2019-05-07T20:38:35.258Z,12.50
2019-05-07T20:43:42.686Z,11.60
2019-05-07T20:48:47.581Z,13.03
2019-05-07T20:54:00.342Z,14.07
2019-05-07T20:59:05.863Z,13.43
2019-05-07T21:04:13.016Z,14.47
2019-05-07T21:09:19.150Z,14.17
2019-05-07T21:14:24.789Z,13.03
2019-05-07T21:19:30.368Z,14.00
2019-05-07T21:24:36.829Z,14.27
2019-05-07T21:29:42.800Z,12.80
2019-05-07T21:34:48.180Z,13.20
2019-05-07T21:39:53.576Z,12.30
2019-05-07T21:44:58.927Z,11.97
2019-05-07T21:50:04.397Z,13.10
2019-05-07T21:55:37.775Z,12.57
2019-05-07T22:01:02.398Z,11.97
2019-05-07T22:06:09.788Z,11.00
2019-05-07T22:11:16.049Z,9.33
2019-05-07T22:16:22.161Z,10.43
2019-05-07T22:21:28.003Z,9.93
2019-05-07T22:26:33.345Z,9.77
2019-05-07T22:31:49.693Z,9.63
2019-05-07T22:36:55.207Z,8.67
2019-05-07T22:42:11.869Z,9.60
2019-05-07T22:47:22.754Z,9.70
2019-05-07T22:52:28.060Z,10.43
2019-05-07T22:57:55.528Z,9.60
2019-05-07T23:03:02.741Z,9.27
2019-05-07T23:08:09.092Z,10.07
2019-05-07T23:13:14.455Z,8.90
2019-05-07T23:18:22.782Z,10.67
2019-05-07T23:23:28.099Z,8.93
2019-05-07T23:28:33.419Z,10.67
2019-05-07T23:33:38.778Z,9.63
2019-05-07T23:38:52.539Z,10.07
2019-05-07T23:44:15.603Z,9.23
2019-05-07T23:49:23.011Z,9.60
2019-05-07T23:54:27.907Z,9.47
2019-05-07T23:59:33.222Z,10.10
